Time;durP1;ratioP1;P1;durP2;ratioP2;P2;SDS_P1;SDS_P2;PMS_P1;PMS_P2;Temp;Humidity;BMP_temperature;BMP_pressure;BME280_temperature;BME280_humidity;BME280_pressure;Samples;Min_cycle;Max_cycle;Signal;HPM_P1;HPM_P2
2022/07/15 00:00:31;;;;;;;;;;;19.80;99.90;;;;;;5052915;28;19912;-68
2022/07/15 00:02:57;;;;;;;;;;;19.70;99.90;;;;;;5053103;28;19913;-69
2022/07/15 00:05:22;;;;;;;;;;;19.70;99.90;;;;;;5052769;28;19935;-69
2022/07/15 00:07:48;;;;;;;;;;;19.70;99.90;;;;;;5053082;28;19913;-69
2022/07/15 00:10:13;;;;;;;;;;;19.70;99.90;;;;;;5052728;28;20381;-70
2022/07/15 00:12:40;;;;;;;;;;;19.70;99.90;;;;;;5052925;28;19917;-69
2022/07/15 00:15:07;;;;;;;;;;;19.70;99.90;;;;;;5052714;28;20003;-69
2022/07/15 00:17:32;;;;;;;;;;;19.60;99.90;;;;;;5052810;28;20011;-70
2022/07/15 00:19:58;;;;;;;;;;;19.60;99.90;;;;;;5052646;28;20016;-69
2022/07/15 00:22:23;;;;;;;;;;;19.50;99.90;;;;;;5052641;28;20003;-70
2022/07/15 00:24:49;;;;;;;;;;;19.40;99.90;;;;;;5052769;28;19919;-70
2022/07/15 00:27:14;;;;;;;;;;;19.40;99.90;;;;;;5052575;28;19921;-70
2022/07/15 00:29:40;;;;;;;;;;;19.30;99.90;;;;;;5052332;28;19916;-70
2022/07/15 00:32:06;;;;;;;;;;;19.30;99.90;;;;;;5052361;28;19963;-70
2022/07/15 00:34:32;;;;;;;;;;;19.30;99.90;;;;;;5052266;28;19920;-70
2022/07/15 00:36:57;;;;;;;;;;;19.20;99.90;;;;;;5052338;28;19944;-70
2022/07/15 00:39:23;;;;;;;;;;;19.20;99.90;;;;;;5052298;28;19959;-70
2022/07/15 00:41:48;;;;;;;;;;;19.20;99.90;;;;;;5034188;28;19921;-70
2022/07/15 00:44:14;;;;;;;;;;;19.20;99.90;;;;;;5052084;28;20417;-70
2022/07/15 00:46:39;;;;;;;;;;;19.20;99.90;;;;;;5052115;28;20349;-70
2022/07/15 00:49:07;;;;;;;;;;;19.20;99.90;;;;;;5034050;28;19913;-70
2022/07/15 00:51:37;;;;;;;;;;;19.20;99.90;;;;;;5052014;28;19912;-70
2022/07/15 00:54:04;;;;;;;;;;;19.00;99.90;;;;;;5052004;28;19964;-70
2022/07/15 00:56:30;;;;;;;;;;;19.20;99.90;;;;;;5051973;28;19912;-70
2022/07/15 00:58:57;;;;;;;;;;;19.20;99.90;;;;;;5052475;28;19923;-70
2022/07/15 01:01:22;;;;;;;;;;;19.20;99.90;;;;;;5052111;28;20008;-70
2022/07/15 01:03:48;;;;;;;;;;;19.20;99.90;;;;;;5052404;28;19999;-70
2022/07/15 01:06:13;;;;;;;;;;;19.20;99.90;;;;;;5050938;28;19913;-70
2022/07/15 01:08:39;;;;;;;;;;;19.20;99.90;;;;;;5034058;28;19913;-70
2022/07/15 01:11:05;;;;;;;;;;;19.00;99.90;;;;;;5051693;28;19917;-70
2022/07/15 01:13:30;;;;;;;;;;;19.20;99.90;;;;;;5052331;28;19913;-70
2022/07/15 01:15:56;;;;;;;;;;;19.20;99.90;;;;;;5051799;28;19920;-70
2022/07/15 01:18:21;;;;;;;;;;;19.20;99.90;;;;;;5033828;28;19917;-70
2022/07/15 01:20:47;;;;;;;;;;;19.20;99.90;;;;;;5051559;28;19970;-70
2022/07/15 01:23:13;;;;;;;;;;;19.10;99.90;;;;;;5051775;28;19944;-70
2022/07/15 01:25:42;;;;;;;;;;;19.30;99.90;;;;;;5051581;28;20055;-70
2022/07/15 01:28:08;;;;;;;;;;;19.30;99.90;;;;;;5051318;28;19920;-70
2022/07/15 01:30:34;;;;;;;;;;;19.40;99.90;;;;;;5051256;28;19917;-70
2022/07/15 01:33:00;;;;;;;;;;;19.50;99.90;;;;;;5051765;28;20005;-70
2022/07/15 01:35:26;;;;;;;;;;;19.50;99.90;;;;;;5051278;28;19917;-70
2022/07/15 01:37:51;;;;;;;;;;;19.50;99.90;;;;;;5051457;28;20353;-70
2022/07/15 01:40:17;;;;;;;;;;;19.40;99.90;;;;;;5050937;28;20444;-70
2022/07/15 01:42:43;;;;;;;;;;;19.40;99.90;;;;;;5051185;28;19963;-70
2022/07/15 01:45:09;;;;;;;;;;;19.40;99.90;;;;;;5051132;28;20011;-69
2022/07/15 01:47:44;;;;;;;;;;;19.40;99.90;;;;;;5051201;28;20028;-70
2022/07/15 01:50:10;;;;;;;;;;;19.30;99.90;;;;;;5050985;28;19963;-70
2022/07/15 01:52:36;;;;;;;;;;;19.30;99.90;;;;;;5051281;28;20384;-70
2022/07/15 01:55:02;;;;;;;;;;;19.30;99.90;;;;;;5050760;28;20000;-70
2022/07/15 01:57:27;;;;;;;;;;;19.30;99.90;;;;;;5032905;28;19974;-70
2022/07/15 01:59:53;;;;;;;;;;;19.20;99.90;;;;;;5050759;28;19913;-70
2022/07/15 02:02:18;;;;;;;;;;;19.20;99.90;;;;;;5050752;28;20431;-70
2022/07/15 02:04:44;;;;;;;;;;;19.10;99.90;;;;;;5050713;28;19924;-70
2022/07/15 02:07:09;;;;;;;;;;;19.20;99.90;;;;;;5050558;28;19921;-70
2022/07/15 02:09:35;;;;;;;;;;;19.20;99.90;;;;;;5032730;28;19920;-70
2022/07/15 02:12:00;;;;;;;;;;;19.20;99.90;;;;;;5050723;28;19968;-69
2022/07/15 02:14:26;;;;;;;;;;;19.20;99.90;;;;;;5050559;28;20232;-69
2022/07/15 02:16:51;;;;;;;;;;;19.30;99.90;;;;;;5032240;28;19916;-69
2022/07/15 02:19:17;;;;;;;;;;;19.20;99.90;;;;;;5050526;28;19916;-70
2022/07/15 02:21:42;;;;;;;;;;;19.30;99.90;;;;;;5050889;28;19920;-70
2022/07/15 02:24:08;;;;;;;;;;;19.30;99.90;;;;;;5050543;28;20258;-69
2022/07/15 02:26:34;;;;;;;;;;;19.30;99.90;;;;;;5050571;28;19909;-69
2022/07/15 02:28:59;;;;;;;;;;;19.30;99.90;;;;;;5051779;28;20262;-69
2022/07/15 02:31:25;;;;;;;;;;;19.30;99.90;;;;;;5066577;28;19945;-69
2022/07/15 02:33:50;;;;;;;;;;;19.30;99.90;;;;;;5071004;28;19923;-70
2022/07/15 02:36:16;;;;;;;;;;;19.30;99.90;;;;;;5070392;28;20426;-70
2022/07/15 02:38:42;;;;;;;;;;;19.40;99.90;;;;;;5070658;28;20022;-69
2022/07/15 02:41:08;;;;;;;;;;;19.30;99.90;;;;;;5070253;28;19946;-69
2022/07/15 02:43:36;;;;;;;;;;;19.30;99.90;;;;;;5070127;28;20392;-68
2022/07/15 02:46:01;;;;;;;;;;;19.30;99.90;;;;;;5070218;28;19909;-69
2022/07/15 02:48:27;;;;;;;;;;;19.30;99.90;;;;;;5070596;28;20268;-70
2022/07/15 02:50:53;;;;;;;;;;;19.10;99.90;;;;;;5070138;28;20256;-70
2022/07/15 02:53:20;;;;;;;;;;;19.20;99.90;;;;;;5070565;28;19920;-70
2022/07/15 02:55:46;;;;;;;;;;;19.20;99.90;;;;;;5070613;28;19908;-70
2022/07/15 02:58:12;;;;;;;;;;;19.20;99.90;;;;;;5069907;28;20014;-69
2022/07/15 03:00:38;;;;;;;;;;;19.20;99.90;;;;;;5070403;28;19996;-69
2022/07/15 03:03:03;;;;;;;;;;;19.20;99.90;;;;;;5051996;28;19985;-69
2022/07/15 03:05:29;;;;;;;;;;;19.20;99.90;;;;;;5070308;28;19912;-69
2022/07/15 03:07:54;;;;;;;;;;;19.30;99.90;;;;;;5069892;28;20283;-69
2022/07/15 03:10:20;;;;;;;;;;;19.30;99.90;;;;;;5070406;28;20205;-69
2022/07/15 03:12:45;;;;;;;;;;;19.30;99.90;;;;;;5069924;28;19965;-69
2022/07/15 03:15:14;;;;;;;;;;;19.30;99.90;;;;;;5070003;28;19909;-69
2022/07/15 03:17:42;;;;;;;;;;;19.30;99.90;;;;;;5051879;28;19927;-69
2022/07/15 03:20:11;;;;;;;;;;;19.20;99.90;;;;;;5070013;28;19909;-69
2022/07/15 03:22:36;;;;;;;;;;;19.30;99.90;;;;;;5070068;28;20361;-69
2022/07/15 03:25:02;;;;;;;;;;;19.30;99.90;;;;;;5069778;28;20019;-69
2022/07/15 03:27:27;;;;;;;;;;;19.30;99.90;;;;;;5069765;28;19923;-70
2022/07/15 03:29:53;;;;;;;;;;;19.30;99.90;;;;;;5053913;28;20376;-70
2022/07/15 03:32:20;;;;;;;;;;;19.30;99.90;;;;;;5073591;28;19966;-70
2022/07/15 03:34:46;;;;;;;;;;;19.20;99.90;;;;;;5073482;28;19936;-70
2022/07/15 03:37:11;;;;;;;;;;;19.20;99.90;;;;;;5073356;28;19955;-69
2022/07/15 03:39:37;;;;;;;;;;;19.20;99.90;;;;;;5073505;28;20426;-70
2022/07/15 03:42:03;;;;;;;;;;;19.10;99.90;;;;;;5073570;28;20348;-70
2022/07/15 03:44:28;;;;;;;;;;;19.20;99.90;;;;;;5073804;28;19993;-70
2022/07/15 03:46:53;;;;;;;;;;;19.20;99.90;;;;;;5073475;28;20149;-70
2022/07/15 03:49:19;;;;;;;;;;;19.20;99.90;;;;;;5055514;28;20126;-70
2022/07/15 03:51:45;;;;;;;;;;;19.20;99.90;;;;;;5073278;28;19920;-70
2022/07/15 03:54:10;;;;;;;;;;;19.10;99.90;;;;;;5073455;28;20349;-69
2022/07/15 03:56:36;;;;;;;;;;;19.10;99.90;;;;;;5055021;28;19909;-69
2022/07/15 03:59:02;;;;;;;;;;;19.10;99.90;;;;;;5072836;28;20023;-70
2022/07/15 04:01:28;;;;;;;;;;;19.10;99.90;;;;;;5073182;28;19956;-70
2022/07/15 04:03:54;;;;;;;;;;;19.00;99.90;;;;;;5072918;28;19975;-71
2022/07/15 04:06:20;;;;;;;;;;;19.10;99.90;;;;;;5072999;28;19952;-70
2022/07/15 04:08:46;;;;;;;;;;;19.00;99.90;;;;;;5073141;28;19963;-70
2022/07/15 04:11:11;;;;;;;;;;;19.00;99.90;;;;;;5072903;28;19955;-70
2022/07/15 04:13:37;;;;;;;;;;;19.00;99.90;;;;;;5073120;28;19939;-70
2022/07/15 04:16:03;;;;;;;;;;;19.00;99.90;;;;;;5072786;28;20328;-70
2022/07/15 04:18:29;;;;;;;;;;;19.00;99.90;;;;;;5054644;28;20307;-70
2022/07/15 04:20:54;;;;;;;;;;;18.90;99.90;;;;;;5073014;28;20253;-69
2022/07/15 04:23:20;;;;;;;;;;;18.90;99.90;;;;;;5072958;28;19952;-69
2022/07/15 04:25:46;;;;;;;;;;;18.80;99.90;;;;;;5072686;28;19912;-69
2022/07/15 04:28:11;;;;;;;;;;;18.80;99.90;;;;;;5072797;28;20292;-69
2022/07/15 04:30:37;;;;;;;;;;;18.70;99.90;;;;;;5072550;28;20007;-70
2022/07/15 04:33:02;;;;;;;;;;;18.70;99.90;;;;;;5072654;28;19913;-70
2022/07/15 04:35:28;;;;;;;;;;;18.70;99.90;;;;;;5072621;28;19919;-70
2022/07/15 04:37:53;;;;;;;;;;;18.70;99.90;;;;;;5072593;28;19965;-70
2022/07/15 04:40:19;;;;;;;;;;;18.70;99.90;;;;;;5072063;28;19932;-69
2022/07/15 04:42:44;;;;;;;;;;;18.70;99.90;;;;;;5072581;28;20013;-69
2022/07/15 04:45:10;;;;;;;;;;;18.70;99.90;;;;;;5072472;28;19909;-69
2022/07/15 04:47:36;;;;;;;;;;;18.70;99.90;;;;;;5072189;28;19921;-69
2022/07/15 04:52:47;;;;;;;;;;;18.80;99.90;;;;;;5072687;28;19970;-70
2022/07/15 04:55:12;;;;;;;;;;;18.90;99.90;;;;;;5071984;28;19912;-68
2022/07/15 04:57:38;;;;;;;;;;;18.90;99.90;;;;;;5071895;28;19920;-69
2022/07/15 05:00:04;;;;;;;;;;;19.00;99.90;;;;;;5071833;28;19909;-69
2022/07/15 05:02:30;;;;;;;;;;;19.00;99.90;;;;;;5072101;28;19921;-69
2022/07/15 05:04:55;;;;;;;;;;;19.10;99.90;;;;;;5071747;28;19908;-68
2022/07/15 05:07:21;;;;;;;;;;;19.10;99.90;;;;;;5071821;28;19923;-69
2022/07/15 05:09:46;;;;;;;;;;;19.30;99.90;;;;;;5072027;28;20323;-69
2022/07/15 05:12:12;;;;;;;;;;;19.30;99.90;;;;;;5071792;28;19917;-68
2022/07/15 05:14:40;;;;;;;;;;;19.30;99.90;;;;;;5071757;28;20279;-69
2022/07/15 05:17:06;;;;;;;;;;;19.30;99.90;;;;;;5071659;28;19923;-68
2022/07/15 05:19:32;;;;;;;;;;;19.30;99.90;;;;;;5071585;28;19965;-68
2022/07/15 05:21:58;;;;;;;;;;;19.30;99.90;;;;;;5071875;28;19917;-69
2022/07/15 05:24:23;;;;;;;;;;;19.20;99.90;;;;;;5071361;28;19966;-70
2022/07/15 05:26:49;;;;;;;;;;;19.20;99.90;;;;;;5071265;28;19936;-68
2022/07/15 05:29:14;;;;;;;;;;;19.20;99.90;;;;;;5071179;28;20364;-69
2022/07/15 05:31:40;;;;;;;;;;;19.10;99.90;;;;;;5070999;28;19909;-69
2022/07/15 05:34:05;;;;;;;;;;;19.10;99.90;;;;;;5071198;28;20387;-70
2022/07/15 05:36:31;;;;;;;;;;;19.00;99.90;;;;;;5071181;28;19919;-70
2022/07/15 05:38:56;;;;;;;;;;;18.90;99.90;;;;;;5071869;28;19972;-69
2022/07/15 05:41:22;;;;;;;;;;;18.90;99.90;;;;;;5070796;28;19924;-69
2022/07/15 05:43:48;;;;;;;;;;;18.90;99.90;;;;;;5071107;28;20396;-68
2022/07/15 05:46:13;;;;;;;;;;;19.00;99.90;;;;;;5071165;28;19909;-70
2022/07/15 05:48:40;;;;;;;;;;;19.20;99.90;;;;;;5070777;28;19966;-70
2022/07/15 05:51:06;;;;;;;;;;;19.40;99.90;;;;;;5070670;28;19912;-69
2022/07/15 05:53:32;;;;;;;;;;;19.40;99.90;;;;;;5070941;28;19923;-70
2022/07/15 05:55:58;;;;;;;;;;;19.50;99.90;;;;;;5070806;28;19912;-69
2022/07/15 05:58:23;;;;;;;;;;;19.60;99.90;;;;;;5071045;28;20337;-69
2022/07/15 06:00:52;;;;;;;;;;;19.60;99.90;;;;;;5070750;28;19913;-69
2022/07/15 06:03:18;;;;;;;;;;;19.60;99.90;;;;;;5071041;28;19920;-69
2022/07/15 06:05:43;;;;;;;;;;;19.70;99.90;;;;;;5070574;28;19916;-70
2022/07/15 06:08:10;;;;;;;;;;;19.60;99.90;;;;;;5071061;28;19919;-70
2022/07/15 06:10:36;;;;;;;;;;;19.60;99.90;;;;;;5070778;28;20338;-70
2022/07/15 06:13:01;;;;;;;;;;;19.60;99.90;;;;;;5052692;28;20015;-69
2022/07/15 06:15:26;;;;;;;;;;;19.70;99.90;;;;;;5070522;28;20368;-68
2022/07/15 06:17:53;;;;;;;;;;;19.70;99.90;;;;;;5070762;28;20019;-68
2022/07/15 06:20:19;;;;;;;;;;;19.70;99.90;;;;;;5071014;28;19934;-67
2022/07/15 06:22:45;;;;;;;;;;;19.80;99.90;;;;;;5070584;28;19916;-67
2022/07/15 06:25:11;;;;;;;;;;;20.00;99.90;;;;;;5070315;28;19945;-67
2022/07/15 06:27:36;;;;;;;;;;;20.00;99.90;;;;;;5070456;28;19913;-68
2022/07/15 06:30:02;;;;;;;;;;;20.20;99.90;;;;;;5070421;28;19966;-68
2022/07/15 06:32:28;;;;;;;;;;;20.30;99.90;;;;;;5070316;28;19917;-68
2022/07/15 06:34:54;;;;;;;;;;;20.50;99.90;;;;;;5070032;28;20066;-68
2022/07/15 06:37:20;;;;;;;;;;;20.60;99.90;;;;;;5070309;28;19912;-68
2022/07/15 06:39:45;;;;;;;;;;;20.80;99.90;;;;;;5069941;28;20516;-68
2022/07/15 06:42:10;;;;;;;;;;;20.90;99.90;;;;;;5070078;28;19939;-68
2022/07/15 06:44:36;;;;;;;;;;;20.90;99.90;;;;;;5070029;28;20009;-68
2022/07/15 06:47:03;;;;;;;;;;;20.90;99.90;;;;;;5052088;28;20386;-68
2022/07/15 06:49:29;;;;;;;;;;;21.00;99.90;;;;;;5070293;28;20320;-68
2022/07/15 06:51:54;;;;;;;;;;;21.20;99.90;;;;;;5070226;28;20013;-68
2022/07/15 06:54:20;;;;;;;;;;;21.30;99.90;;;;;;5070046;28;19948;-68
2022/07/15 06:56:46;;;;;;;;;;;21.30;99.90;;;;;;5070086;28;19928;-66
2022/07/15 06:59:11;;;;;;;;;;;21.20;99.90;;;;;;5070245;28;19920;-67
2022/07/15 07:01:37;;;;;;;;;;;21.10;99.90;;;;;;5069888;28;20011;-66
2022/07/15 07:04:02;;;;;;;;;;;21.10;99.90;;;;;;5071138;28;19908;-67
2022/07/15 07:06:28;;;;;;;;;;;21.00;99.90;;;;;;5074165;28;19912;-66
2022/07/15 07:08:54;;;;;;;;;;;21.00;99.90;;;;;;5074308;28;19916;-67
2022/07/15 07:11:19;;;;;;;;;;;21.00;99.90;;;;;;5074382;28;19951;-68
2022/07/15 07:13:46;;;;;;;;;;;21.10;99.90;;;;;;5074201;28;20289;-68
2022/07/15 07:16:12;;;;;;;;;;;21.20;99.90;;;;;;5073650;28;20292;-67
2022/07/15 07:18:37;;;;;;;;;;;21.30;99.90;;;;;;5073827;28;19924;-67
2022/07/15 07:21:03;;;;;;;;;;;21.40;99.90;;;;;;5073811;28;19986;-67
2022/07/15 07:23:29;;;;;;;;;;;21.50;99.90;;;;;;5074030;28;19932;-67
2022/07/15 07:25:55;;;;;;;;;;;21.50;99.90;;;;;;5073832;28;20276;-67
2022/07/15 07:28:21;;;;;;;;;;;21.50;99.90;;;;;;5073212;28;19916;-67
2022/07/15 07:30:46;;;;;;;;;;;21.60;99.90;;;;;;5072506;28;19919;-67
2022/07/15 07:33:12;;;;;;;;;;;21.70;99.90;;;;;;5072873;28;20253;-67
2022/07/15 07:35:38;;;;;;;;;;;22.00;99.90;;;;;;5072767;28;19913;-67
2022/07/15 07:38:03;;;;;;;;;;;22.20;99.90;;;;;;5072951;28;19920;-67
2022/07/15 07:40:29;;;;;;;;;;;22.30;99.90;;;;;;5072518;28;19928;-67
2022/07/15 07:42:56;;;;;;;;;;;22.40;99.90;;;;;;5073304;28;19988;-67
2022/07/15 07:45:24;;;;;;;;;;;22.50;99.90;;;;;;5073103;28;20376;-67
2022/07/15 07:47:49;;;;;;;;;;;22.60;99.90;;;;;;5072962;28;19921;-67
2022/07/15 07:50:16;;;;;;;;;;;22.90;99.90;;;;;;5072805;28;19912;-67
2022/07/15 07:52:42;;;;;;;;;;;23.20;99.90;;;;;;5072931;28;19920;-67
2022/07/15 07:55:08;;;;;;;;;;;23.40;99.90;;;;;;5072707;28;20430;-67
2022/07/15 07:57:34;;;;;;;;;;;23.70;99.90;;;;;;5054017;28;20372;-67
2022/07/15 07:59:59;;;;;;;;;;;23.80;99.90;;;;;;5072597;28;20007;-67
2022/07/15 08:02:28;;;;;;;;;;;23.90;99.90;;;;;;5072692;28;20411;-66
2022/07/15 08:04:53;;;;;;;;;;;24.00;99.90;;;;;;5072367;28;19974;-66
2022/07/15 08:07:19;;;;;;;;;;;24.20;99.90;;;;;;5072937;28;19917;-67
2022/07/15 08:09:45;;;;;;;;;;;24.40;99.90;;;;;;5072088;28;20009;-67
2022/07/15 08:12:10;;;;;;;;;;;24.60;99.90;;;;;;5054254;28;19979;-67
2022/07/15 08:14:36;;;;;;;;;;;24.90;99.90;;;;;;5072836;28;19910;-67
2022/07/15 08:17:01;;;;;;;;;;;25.20;99.90;;;;;;5072393;28;19949;-66
2022/07/15 08:19:27;;;;;;;;;;;25.20;99.90;;;;;;5071824;28;19913;-65
2022/07/15 08:21:52;;;;;;;;;;;25.20;99.90;;;;;;5072175;28;20469;-66
2022/07/15 08:24:18;;;;;;;;;;;25.10;99.90;;;;;;5072163;28;19919;-66
2022/07/15 08:26:43;;;;;;;;;;;25.10;99.90;;;;;;5053875;28;19912;-66
2022/07/15 08:29:09;;;;;;;;;;;25.10;99.90;;;;;;5053734;28;19995;-66
2022/07/15 08:31:35;;;;;;;;;;;25.20;99.90;;;;;;5072178;28;19958;-66
2022/07/15 08:34:01;;;;;;;;;;;25.30;99.90;;;;;;5072139;28;19916;-66
2022/07/15 08:36:27;;;;;;;;;;;25.40;99.90;;;;;;5072104;28;19916;-66
2022/07/15 08:38:52;;;;;;;;;;;25.20;99.90;;;;;;5071945;28;20008;-67
2022/07/15 08:41:18;;;;;;;;;;;25.10;99.90;;;;;;5071741;28;19948;-66
2022/07/15 08:43:44;;;;;;;;;;;24.90;99.90;;;;;;5072198;28;20019;-67
2022/07/15 08:46:09;;;;;;;;;;;24.70;99.90;;;;;;5071847;28;19908;-66
2022/07/15 08:48:36;;;;;;;;;;;24.40;99.90;;;;;;5071551;28;19931;-66
2022/07/15 08:51:03;;;;;;;;;;;24.20;99.90;;;;;;5053663;28;19915;-66
2022/07/15 08:53:30;;;;;;;;;;;24.00;99.90;;;;;;5053607;28;19916;-67
2022/07/15 08:55:56;;;;;;;;;;;23.90;99.90;;;;;;5072513;28;19917;-69
2022/07/15 08:58:22;;;;;;;;;;;23.70;99.90;;;;;;5054309;28;19924;-67
2022/07/15 09:00:47;;;;;;;;;;;23.60;99.90;;;;;;5072109;28;20007;-66
2022/07/15 09:03:13;;;;;;;;;;;23.50;99.90;;;;;;5071688;28;20350;-66
2022/07/15 09:05:39;;;;;;;;;;;23.50;99.90;;;;;;5071392;28;19916;-67
2022/07/15 09:08:04;;;;;;;;;;;23.30;99.90;;;;;;5071330;28;20444;-66
2022/07/15 09:10:42;;;;;;;;;;;23.30;99.90;;;;;;5071046;28;19951;-67
2022/07/15 09:13:08;;;;;;;;;;;23.20;99.90;;;;;;5071455;28;20380;-66
2022/07/15 09:15:35;;;;;;;;;;;23.30;99.90;;;;;;5071297;28;20395;-67
2022/07/15 09:18:06;;;;;;;;;;;23.20;99.90;;;;;;5070937;28;20213;-67
2022/07/15 09:20:32;;;;;;;;;;;23.20;99.90;;;;;;5070864;28;19908;-67
2022/07/15 09:22:57;;;;;;;;;;;23.20;99.90;;;;;;5071173;28;20391;-67
2022/07/15 09:25:23;;;;;;;;;;;23.20;99.90;;;;;;5071058;28;19912;-67
2022/07/15 09:27:49;;;;;;;;;;;23.10;99.90;;;;;;5069748;28;20250;-68
2022/07/15 09:36:01;;;;;;;;;;;23.00;99.90;;;;;;5071378;28;20276;-68
2022/07/15 09:38:30;;;;;;;;;;;23.20;99.90;;;;;;5070665;28;20333;-68
2022/07/15 09:40:55;;;;;;;;;;;23.00;99.90;;;;;;5070500;28;19936;-68
2022/07/15 09:43:20;;;;;;;;;;;23.00;99.90;;;;;;5071017;28;19916;-66
2022/07/15 09:45:46;;;;;;;;;;;22.90;99.90;;;;;;5070367;28;20327;-66
2022/07/15 09:48:15;;;;;;;;;;;22.90;99.90;;;;;;5052296;28;19923;-70
2022/07/15 09:50:40;;;;;;;;;;;22.90;99.90;;;;;;5070260;28;19916;-66
2022/07/15 09:53:13;;;;;;;;;;;22.90;99.90;;;;;;5070456;28;19931;-66
2022/07/15 09:55:42;;;;;;;;;;;22.90;99.90;;;;;;5070417;28;19912;-68
2022/07/15 09:58:08;;;;;;;;;;;22.90;99.90;;;;;;5069408;28;20395;-67
2022/07/15 10:00:34;;;;;;;;;;;22.80;99.90;;;;;;5052052;28;19909;-67
2022/07/15 10:03:01;;;;;;;;;;;22.90;99.90;;;;;;5052089;28;19917;-67
2022/07/15 10:05:27;;;;;;;;;;;22.90;99.90;;;;;;5070075;28;19919;-67
2022/07/15 10:07:56;;;;;;;;;;;22.80;99.90;;;;;;5070141;28;20007;-67
2022/07/15 10:10:25;;;;;;;;;;;22.80;99.90;;;;;;5070507;28;19992;-67
2022/07/15 10:13:05;;;;;;;;;;;22.70;99.90;;;;;;5070206;28;19927;-68
2022/07/15 10:15:37;;;;;;;;;;;22.70;99.90;;;;;;5070357;28;20233;-68
2022/07/15 10:18:02;;;;;;;;;;;22.60;99.90;;;;;;5069999;28;19966;-67
2022/07/15 10:20:28;;;;;;;;;;;22.60;99.90;;;;;;5064597;28;20050;-68
2022/07/15 10:22:57;;;;;;;;;;;22.50;99.90;;;;;;5060880;28;19925;-67
2022/07/15 10:25:25;;;;;;;;;;;22.50;99.90;;;;;;5058574;28;19919;-68
2022/07/15 10:28:06;;;;;;;;;;;22.50;99.90;;;;;;5049579;28;19967;-68
2022/07/15 10:30:31;;;;;;;;;;;22.40;99.90;;;;;;5067553;28;19913;-69
2022/07/15 10:33:02;;;;;;;;;;;22.20;99.90;;;;;;5068541;28;20253;-67
2022/07/15 10:35:48;;;;;;;;;;;22.20;99.90;;;;;;5069950;28;20323;-67
2022/07/15 10:38:23;;;;;;;;;;;22.10;99.90;;;;;;5057537;28;19926;-67
2022/07/15 10:41:09;;;;;;;;;;;22.00;99.90;;;;;;5050033;28;20059;-68
2022/07/15 10:43:42;;;;;;;;;;;22.00;99.90;;;;;;5049888;28;20280;-67
2022/07/15 10:46:17;;;;;;;;;;;21.90;99.90;;;;;;5049837;28;19909;-67
2022/07/15 10:48:43;;;;;;;;;;;21.80;99.90;;;;;;5050224;28;19921;-67
2022/07/15 10:51:09;;;;;;;;;;;21.70;99.90;;;;;;5031839;28;19909;-67
2022/07/15 10:53:45;;;;;;;;;;;21.50;99.90;;;;;;5050016;28;19943;-67
2022/07/15 10:56:30;;;;;;;;;;;21.20;99.90;;;;;;5067967;28;19912;-67
2022/07/15 10:59:08;;;;;;;;;;;20.90;99.90;;;;;;5069974;28;19974;-67
2022/07/15 11:01:34;;;;;;;;;;;20.50;99.90;;;;;;5069532;28;20284;-68
2022/07/15 11:04:18;;;;;;;;;;;20.20;99.90;;;;;;5069616;28;19908;-67
2022/07/15 11:07:01;;;;;;;;;;;20.00;99.90;;;;;;5069532;28;19935;-69
2022/07/15 11:09:43;;;;;;;;;;;19.90;99.90;;;;;;5069567;28;19931;-68
2022/07/15 11:12:09;;;;;;;;;;;19.80;99.90;;;;;;5069861;28;19917;-67
2022/07/15 11:14:50;;;;;;;;;;;19.70;99.90;;;;;;5069686;28;19954;-67
2022/07/15 11:17:19;;;;;;;;;;;19.60;99.90;;;;;;5069813;28;20467;-67
2022/07/15 11:19:49;;;;;;;;;;;19.60;99.90;;;;;;5069346;28;20003;-68
2022/07/15 11:22:16;;;;;;;;;;;19.50;99.90;;;;;;5053413;28;19974;-68
2022/07/15 11:24:42;;;;;;;;;;;19.40;99.90;;;;;;5050437;28;19948;-68
2022/07/15 11:27:07;;;;;;;;;;;19.30;99.90;;;;;;5050409;28;19952;-67
2022/07/15 11:29:40;;;;;;;;;;;19.20;99.90;;;;;;5060887;28;19909;-67
2022/07/15 11:32:07;;;;;;;;;;;19.20;99.90;;;;;;5069928;28;19960;-66
2022/07/15 11:34:38;;;;;;;;;;;19.10;99.90;;;;;;5069925;28;19962;-67
2022/07/15 11:37:04;;;;;;;;;;;19.00;99.90;;;;;;5069990;28;19920;-67
2022/07/15 11:39:30;;;;;;;;;;;18.90;99.90;;;;;;5069816;28;19916;-67
2022/07/15 11:44:48;;;;;;;;;;;18.90;99.90;;;;;;5064389;28;19909;-67
2022/07/15 11:47:13;;;;;;;;;;;18.80;99.90;;;;;;5070061;28;20291;-67
2022/07/15 11:49:39;;;;;;;;;;;18.80;99.90;;;;;;5069691;28;19919;-68
2022/07/15 11:52:06;;;;;;;;;;;18.80;99.90;;;;;;5073506;28;19916;-67
2022/07/15 11:54:34;;;;;;;;;;;18.70;99.90;;;;;;5072595;28;20031;-68
2022/07/15 11:57:00;;;;;;;;;;;18.80;99.90;;;;;;5073368;28;19920;-66
2022/07/15 11:59:26;;;;;;;;;;;18.70;99.90;;;;;;5073159;28;19924;-68
2022/07/15 12:02:01;;;;;;;;;;;18.80;99.90;;;;;;5073486;28;19977;-66
2022/07/15 12:04:27;;;;;;;;;;;18.80;99.90;;;;;;5073058;28;19915;-67
2022/07/15 12:06:52;;;;;;;;;;;18.80;99.90;;;;;;5073196;28;19908;-66
2022/07/15 12:09:18;;;;;;;;;;;18.80;99.90;;;;;;5073641;28;19908;-67
2022/07/15 12:11:43;;;;;;;;;;;18.80;99.90;;;;;;5073829;28;20037;-67
2022/07/15 12:14:10;;;;;;;;;;;18.80;99.90;;;;;;5073683;28;19908;-67
2022/07/15 12:16:40;;;;;;;;;;;18.80;99.90;;;;;;5054888;28;20062;-68
2022/07/15 12:19:08;;;;;;;;;;;18.80;99.90;;;;;;5073219;28;20192;-67
2022/07/15 12:21:35;;;;;;;;;;;18.80;99.90;;;;;;5071263;28;19915;-67
2022/07/15 12:24:00;;;;;;;;;;;18.90;99.90;;;;;;5053421;28;19909;-68
2022/07/15 12:26:26;;;;;;;;;;;19.00;99.90;;;;;;5052921;28;19928;-67
2022/07/15 12:28:55;;;;;;;;;;;19.10;99.90;;;;;;5059792;28;19920;-67
2022/07/15 12:31:27;;;;;;;;;;;19.20;99.90;;;;;;5072842;28;19908;-67
2022/07/15 12:33:53;;;;;;;;;;;19.30;99.90;;;;;;5073440;28;19916;-67
2022/07/15 12:36:19;;;;;;;;;;;19.30;99.90;;;;;;5073255;28;19982;-67
2022/07/15 12:39:00;;;;;;;;;;;19.30;99.90;;;;;;5073301;28;20369;-66
2022/07/15 12:41:26;;;;;;;;;;;19.40;99.90;;;;;;5072598;28;19931;-67
2022/07/15 12:43:53;;;;;;;;;;;19.40;99.90;;;;;;5054841;28;19921;-67
2022/07/15 12:46:19;;;;;;;;;;;19.40;99.90;;;;;;5072961;28;20272;-67
2022/07/15 12:48:46;;;;;;;;;;;19.50;99.90;;;;;;5073002;28;20015;-67
2022/07/15 12:51:12;;;;;;;;;;;19.50;99.90;;;;;;5072847;28;19908;-67
2022/07/15 12:53:38;;;;;;;;;;;19.60;99.90;;;;;;5073015;28;19962;-67
2022/07/15 12:56:06;;;;;;;;;;;19.60;99.90;;;;;;5058620;28;19951;-67
2022/07/15 12:58:33;;;;;;;;;;;19.70;99.90;;;;;;5052568;28;20222;-67
2022/07/15 13:01:06;;;;;;;;;;;19.70;99.90;;;;;;5052535;28;19909;-67
2022/07/15 13:03:32;;;;;;;;;;;19.70;99.90;;;;;;5052625;28;19916;-67
2022/07/15 13:05:58;;;;;;;;;;;19.70;99.90;;;;;;5052307;28;20012;-67
2022/07/15 13:08:24;;;;;;;;;;;19.80;99.90;;;;;;5052431;28;19970;-68
2022/07/15 13:10:52;;;;;;;;;;;19.80;99.90;;;;;;5034255;28;19913;-67
2022/07/15 13:13:18;;;;;;;;;;;19.80;99.90;;;;;;5052217;28;19917;-67
2022/07/15 13:15:45;;;;;;;;;;;19.80;99.90;;;;;;5052282;28;20285;-68
2022/07/15 13:18:10;;;;;;;;;;;19.90;99.90;;;;;;5052259;28;20078;-68
2022/07/15 13:20:36;;;;;;;;;;;20.00;99.90;;;;;;5051870;28;20007;-67
2022/07/15 13:23:02;;;;;;;;;;;20.00;99.90;;;;;;5052060;28;19943;-68
2022/07/15 13:25:29;;;;;;;;;;;19.90;99.90;;;;;;5051869;28;19996;-68
2022/07/15 13:27:54;;;;;;;;;;;19.80;99.90;;;;;;5052116;28;19921;-68
2022/07/15 13:30:20;;;;;;;;;;;19.80;99.90;;;;;;5070274;28;20064;-68
2022/07/15 13:32:46;;;;;;;;;;;19.80;99.90;;;;;;5071649;28;19947;-67
2022/07/15 13:35:12;;;;;;;;;;;19.70;99.90;;;;;;5071332;28;20007;-67
2022/07/15 13:37:38;;;;;;;;;;;19.80;99.90;;;;;;5071156;28;19923;-67
2022/07/15 13:40:05;;;;;;;;;;;19.80;99.90;;;;;;5071284;28;19909;-67
2022/07/15 13:42:30;;;;;;;;;;;19.90;99.90;;;;;;5052866;28;19916;-67
2022/07/15 13:44:56;;;;;;;;;;;19.90;99.90;;;;;;5071074;28;19920;-67
2022/07/15 13:47:22;;;;;;;;;;;20.00;99.90;;;;;;5071088;28;20291;-67
2022/07/15 13:52:31;;;;;;;;;;;20.30;99.90;;;;;;5071536;28;19923;-67
2022/07/15 13:54:57;;;;;;;;;;;20.50;99.90;;;;;;5066770;28;19912;-68
2022/07/15 13:57:22;;;;;;;;;;;20.70;99.90;;;;;;5050839;28;19917;-69
2022/07/15 13:59:48;;;;;;;;;;;20.80;99.90;;;;;;5050740;28;19921;-67
2022/07/15 14:02:13;;;;;;;;;;;20.80;99.90;;;;;;5050781;28;19920;-67
2022/07/15 14:04:39;;;;;;;;;;;20.70;99.90;;;;;;5050809;28;19909;-67
2022/07/15 14:07:05;;;;;;;;;;;20.70;99.90;;;;;;5050905;28;19924;-67
2022/07/15 14:09:30;;;;;;;;;;;20.60;99.90;;;;;;5051018;28;20292;-67
2022/07/15 14:11:56;;;;;;;;;;;20.70;99.90;;;;;;5051068;28;19924;-67
2022/07/15 14:14:22;;;;;;;;;;;20.70;99.90;;;;;;5032680;28;19909;-67
2022/07/15 14:16:48;;;;;;;;;;;20.70;99.90;;;;;;5051079;28;19909;-67
2022/07/15 14:19:13;;;;;;;;;;;20.70;99.90;;;;;;5051317;28;20000;-67
2022/07/15 14:21:39;;;;;;;;;;;20.80;99.90;;;;;;5050777;28;20345;-68
2022/07/15 14:24:04;;;;;;;;;;;20.90;99.90;;;;;;5050864;28;19909;-68
2022/07/15 14:26:30;;;;;;;;;;;20.90;99.90;;;;;;5050910;28;19913;-68